Perry, IA

6:18 AM CDT on May 29, 2017 (GMT -0500)
Perry Municipal

Weather History for KPRO - December, 2012

Change the Weather History Date:

Wednesday, December 12, 2012

  Actual Average Record
Temperature  
Mean Temperature 38 °F -  
Max Temperature 52 °F 32 °F 59 °F (1965)
Min Temperature 25 °F 14 °F -13 °F (1989)
Degree Days  
Heating Degree Days 26    
Moisture  
Dew Point 19 °F    
Average Humidity 53    
Maximum Humidity 81    
Minimum Humidity 24    
Precipitation  
Precipitation 0.03 in - - ()
Sea Level Pressure  
Sea Level Pressure 30.01 in    
Wind  
Wind Speed 14 mph (South)    
Max Wind Speed 29 mph    
Max Gust Speed 36 mph    
Visibility 10 miles    
Events      
Averages and records for this station are not official NWS values.
T = Trace of Precipitation, MM = Missing Value Source: NWS Daily Summary

Daily Weather History Graph

Daily Weather History Graph

Search for Another Location

Airport or City:

Trip Planner

Search our weather history database for the weather conditions in past years. The results will help you decide how hot, cold, wet, or windy it might be!

Date:

Astronomy

Dec. 12, 2012 Rise Set
Actual Time 7:35 AM CST 4:46 PM CST
Civil Twilight 7:03 AM CST 5:17 PM CST
Nautical Twilight 6:28 AM CST 5:52 PM CST
Astronomical Twilight 5:54 AM CST 6:26 PM CST
Moon 6:40 AM CST (12/12) 4:24 PM CST (12/12)
Length of Visible Light 10h 13m
Length of Day
9h 10m
Waning Crescent, 1% of the Moon is Illuminated
Dec 12
Waning Crescent
Dec 13
New
Dec 19
First Quarter
Dec 28
Full
Jan 4
Last Quarter

Hourly Weather History & Observations

Time (CST) Temp. Windchill Dew Point Humidity Pressure Visibility Wind Dir Wind Speed Gust Speed Precip Events Conditions
12:15 AM 25.3 °F 16.0 °F 20.1 °F 81% 30.02 in 10.0 mi SSW 9.2 mph - N/A   Clear
12:35 AM 25.7 °F 16.4 °F 20.3 °F 80% 30.01 in 10.0 mi South 9.2 mph - N/A   Clear
12:55 AM 25.2 °F 17.3 °F 20.1 °F 81% 30.01 in 10.0 mi South 6.9 mph - N/A   Clear
1:15 AM 25.5 °F 17.8 °F 20.3 °F 81% 30.01 in 10.0 mi South 6.9 mph - N/A   Clear
1:55 AM 25.3 °F 16.7 °F 19.9 °F 80% 30.02 in 10.0 mi South 8.1 mph - N/A   Clear
2:15 AM 25.7 °F 17.1 °F 20.5 °F 81% 30.02 in 10.0 mi South 8.1 mph - N/A   Clear
2:35 AM 27.0 °F 17.3 °F 21.0 °F 78% 30.02 in 10.0 mi South 10.4 mph - N/A   Clear
2:55 AM 27.0 °F 17.3 °F 21.0 °F 78% 30.02 in 10.0 mi South 10.4 mph - N/A   Clear
3:15 AM 26.6 °F 16.8 °F 20.8 °F 79% 30.02 in 10.0 mi South 10.4 mph - N/A   Clear
3:55 AM 25.7 °F 16.4 °F 20.3 °F 80% 30.02 in 10.0 mi South 9.2 mph - N/A   Clear
4:15 AM 26.6 °F 16.8 °F 21.0 °F 79% 30.02 in 10.0 mi South 10.4 mph - N/A   Clear
4:35 AM 27.0 °F 18.0 °F 21.2 °F 79% 30.02 in 10.0 mi South 9.2 mph - N/A   Clear
4:55 AM 27.5 °F 18.6 °F 21.2 °F 77% 30.02 in 10.0 mi South 9.2 mph - N/A   Clear
5:35 AM 27.3 °F 17.7 °F 21.0 °F 77% 30.01 in 10.0 mi South 10.4 mph - N/A   Clear
5:55 AM 28.2 °F 18.3 °F 21.4 °F 76% 30.02 in 10.0 mi South 11.5 mph - N/A   Clear
6:15 AM 29.1 °F 17.9 °F 21.7 °F 74% 30.01 in 10.0 mi South 15.0 mph - N/A   Clear
6:35 AM 29.8 °F 19.3 °F 21.6 °F 71% 30.02 in 10.0 mi South 13.8 mph - N/A   Clear
6:55 AM 30.0 °F 20.0 °F 21.6 °F 71% 30.02 in 10.0 mi South 12.7 mph - N/A   Clear
7:15 AM 30.0 °F 19.5 °F 21.2 °F 70% 30.02 in 10.0 mi South 13.8 mph - N/A   Clear
7:35 AM 29.7 °F 20.1 °F 21.2 °F 71% 30.02 in 10.0 mi South 11.5 mph - N/A   Clear
7:55 AM 30.2 °F 20.8 °F 21.6 °F 70% 30.02 in 10.0 mi South 11.5 mph - N/A   Clear
8:15 AM 32.0 °F 21.6 °F 21.7 °F 66% 30.02 in 10.0 mi South 15.0 mph - N/A   Clear
8:35 AM 33.1 °F 22.6 °F 22.6 °F 66% 30.03 in 10.0 mi South 16.1 mph - N/A   Clear
8:55 AM 34.7 °F 25.1 °F 23.4 °F 63% 30.04 in 10.0 mi South 15.0 mph - N/A   Clear
9:15 AM 35.4 °F 26.4 °F 23.5 °F 62% 30.03 in 10.0 mi South 13.8 mph - N/A   Clear
9:35 AM 37.9 °F 28.2 °F 23.7 °F 57% 30.03 in 10.0 mi South 18.4 mph 23.0 mph N/A   Clear
9:55 AM 40.1 °F 31.3 °F 22.8 °F 50% 30.04 in 10.0 mi South 17.3 mph 24.2 mph N/A   Clear
10:15 AM 42.1 °F 33.3 °F 22.5 °F 46% 30.03 in 10.0 mi South 19.6 mph 25.3 mph N/A   Clear
10:35 AM 43.7 °F 35.4 °F 20.7 °F 40% 30.04 in 10.0 mi SSW 19.6 mph - N/A   Clear
10:55 AM 44.6 °F 36.9 °F 21.0 °F 39% 30.03 in 10.0 mi South 18.4 mph - N/A   Clear
11:15 AM 45.7 °F 37.6 °F 20.1 °F 36% 30.03 in 10.0 mi SSW 21.9 mph 28.8 mph N/A   Clear
11:35 AM 47.7 °F - 19.6 °F 33% 30.02 in 10.0 mi SSW 21.9 mph 29.9 mph N/A   Clear
11:55 AM 49.5 °F - 18.7 °F 30% 30.01 in 10.0 mi SSW 27.6 mph - N/A   Clear
12:15 PM 50.5 °F - 17.8 °F 27% 30.00 in 10.0 mi SSW 24.2 mph 31.1 mph N/A   Clear
12:35 PM 51.1 °F - 16.2 °F 25% 30.00 in 10.0 mi SSW 27.6 mph 34.5 mph N/A   Clear
12:55 PM 51.4 °F - 16.5 °F 25% 30.00 in 10.0 mi SSW 27.6 mph 35.7 mph N/A   Clear
1:15 PM 51.8 °F - 16.5 °F 25% 29.99 in 10.0 mi SSW 25.3 mph 34.5 mph N/A   Clear
1:35 PM 52.5 °F - 16.3 °F 24% 29.98 in 10.0 mi SSW 25.3 mph 31.1 mph N/A   Clear
1:55 PM 52.7 °F - 16.7 °F 24% 29.97 in 10.0 mi SSW 27.6 mph 34.5 mph N/A   Clear
2:15 PM 51.8 °F - 16.9 °F 25% 29.97 in - SSW 25.3 mph 32.2 mph 0.03 in   Unknown
2:35 PM 49.8 °F - 18.9 °F 29% 29.97 in 10.0 mi SSW 27.6 mph - 0.03 in   Unknown
2:55 PM 49.5 °F - 18.3 °F 29% 29.96 in 10.0 mi SSW 28.8 mph 34.5 mph 0.03 in   Clear
3:15 PM 49.1 °F - 18.9 °F 30% 29.97 in 10.0 mi SSW 23.0 mph - N/A   Clear
3:35 PM 48.4 °F - 18.0 °F 30% 29.97 in 10.0 mi South 20.7 mph 27.6 mph N/A   Clear
3:55 PM 47.3 °F - 17.8 °F 31% 29.97 in 10.0 mi South 19.6 mph 27.6 mph N/A   Clear
4:15 PM 45.3 °F 39.3 °F 18.5 °F 34% 29.97 in 10.0 mi South 12.7 mph - N/A   Clear
4:35 PM 43.5 °F 37.1 °F 18.3 °F 36% 29.97 in 10.0 mi South 12.7 mph - N/A   Clear
4:55 PM 41.4 °F 34.0 °F 18.3 °F 40% 29.97 in 10.0 mi South 13.8 mph - N/A   Clear
5:15 PM 39.7 °F 32.3 °F 18.5 °F 42% 29.98 in 10.0 mi South 12.7 mph - N/A   Clear
5:35 PM 39.2 °F 31.2 °F 18.3 °F 43% 29.98 in 10.0 mi South 13.8 mph - N/A   Clear
5:55 PM 38.8 °F 31.2 °F 18.3 °F 44% 29.98 in 10.0 mi SSE 12.7 mph - N/A   Clear
6:15 PM 37.4 °F 29.3 °F 18.7 °F 47% 29.98 in 10.0 mi South 12.7 mph - N/A   Clear
6:55 PM 37.0 °F 28.9 °F 18.5 °F 47% 29.99 in 10.0 mi South 12.7 mph - N/A   Clear
7:15 PM 37.4 °F 28.9 °F 17.8 °F 45% 30.00 in 10.0 mi South 13.8 mph - N/A   Clear
7:35 PM 36.1 °F 27.7 °F 18.0 °F 48% 30.01 in 10.0 mi South 12.7 mph - N/A   Clear
7:55 PM 35.6 °F 26.6 °F 17.8 °F 48% 30.01 in 10.0 mi South 13.8 mph - N/A   Clear
8:15 PM 36.5 °F 26.7 °F 17.1 °F 45% 30.01 in 10.0 mi South 17.3 mph - N/A   Clear
8:35 PM 36.5 °F 26.7 °F 16.3 °F 44% 30.01 in 10.0 mi South 17.3 mph - N/A   Clear
8:55 PM 35.4 °F 26.0 °F 16.2 °F 46% 30.01 in 10.0 mi South 15.0 mph - N/A   Clear
9:15 PM 34.7 °F 24.7 °F 16.2 °F 47% 30.01 in 10.0 mi South 16.1 mph - N/A   Clear
9:35 PM 34.7 °F 25.5 °F 16.0 °F 46% 30.02 in 10.0 mi South 13.8 mph - N/A   Clear
9:55 PM 33.8 °F 23.9 °F 16.7 °F 50% 30.03 in 10.0 mi South 15.0 mph - N/A   Clear
10:15 PM 32.9 °F 24.1 °F 16.9 °F 52% 30.04 in 10.0 mi South 11.5 mph - N/A   Clear
10:35 PM 32.7 °F 23.4 °F 17.1 °F 53% 30.04 in 10.0 mi South 12.7 mph - N/A   Clear
10:55 PM 33.1 °F 24.4 °F 16.7 °F 51% 30.03 in 10.0 mi South 11.5 mph - N/A   Clear
11:15 PM 33.8 °F 24.3 °F 16.7 °F 50% 30.03 in 10.0 mi South 13.8 mph - N/A   Clear
11:35 PM 34.3 °F 25.0 °F 16.7 °F 49% 30.03 in 10.0 mi South 13.8 mph - N/A   Clear
11:55 PM 34.3 °F 24.6 °F 16.7 °F 49% 30.03 in 10.0 mi South 15.0 mph - N/A   Clear